Time;durP1;ratioP1;P1;durP2;ratioP2;P2;SDS_P1;SDS_P2;PMS_P1;PMS_P2;Temp;Humidity;BMP_temperature;BMP_pressure;BME280_temperature;BME280_humidity;BME280_pressure;Samples;Min_cycle;Max_cycle;Signal;HPM_P1;HPM_P2
2023/08/02 00:00:48;;;;;;;11.63;10.57;;;;;;;;;;4984770;28;20442;-74
2023/08/02 00:03:13;;;;;;;11.15;10.18;;;;;;;;;;4985231;28;20034;-73
2023/08/02 00:05:39;;;;;;;10.68;9.95;;;;;;;;;;4985525;28;20038;-73
2023/08/02 00:08:05;;;;;;;11.23;10.52;;;;;;;;;;4984126;28;20042;-74
2023/08/02 00:10:34;;;;;;;10.60;9.82;;;;;;;;;;4982564;28;20073;-73
2023/08/02 00:13:00;;;;;;;12.57;11.25;;;;;;;;;;4983502;28;20039;-73
2023/08/02 00:15:25;;;;;;;12.15;11.07;;;;;;;;;;4985862;28;20046;-73
2023/08/02 00:17:51;;;;;;;10.55;9.85;;;;;;;;;;4984810;28;20093;-73
2023/08/02 00:20:17;;;;;;;11.57;10.68;;;;;;;;;;4982631;28;20041;-73
2023/08/02 00:22:42;;;;;;;10.68;10.05;;;;;;;;;;4986778;28;20112;-73
2023/08/02 00:25:08;;;;;;;11.18;10.10;;;;;;;;;;4990972;28;20642;-72
2023/08/02 00:27:34;;;;;;;10.98;10.07;;;;;;;;;;4988261;28;21023;-73
2023/08/02 00:29:59;;;;;;;11.07;10.25;;;;;;;;;;4986388;28;20042;-72
2023/08/02 00:32:26;;;;;;;11.07;10.07;;;;;;;;;;4986563;28;20121;-73
2023/08/02 00:34:54;;;;;;;11.45;10.55;;;;;;;;;;4988213;28;20564;-72
2023/08/02 00:37:23;;;;;;;10.52;9.90;;;;;;;;;;4988363;28;20026;-73
2023/08/02 00:39:51;;;;;;;11.03;10.33;;;;;;;;;;4986211;28;20042;-72
2023/08/02 00:42:16;;;;;;;10.65;9.95;;;;;;;;;;4988055;28;20289;-72
2023/08/02 00:44:42;;;;;;;10.90;10.10;;;;;;;;;;4984677;28;20416;-73
2023/08/02 00:47:07;;;;;;;11.23;10.25;;;;;;;;;;4986369;28;20034;-73
2023/08/02 00:49:33;;;;;;;11.52;10.63;;;;;;;;;;4988351;28;20041;-73
2023/08/02 00:51:59;;;;;;;11.52;10.63;;;;;;;;;;4986294;28;20034;-73
2023/08/02 00:54:25;;;;;;;10.20;9.50;;;;;;;;;;4986111;28;20096;-73
2023/08/02 00:56:51;;;;;;;11.38;10.57;;;;;;;;;;5002227;28;20421;-73
2023/08/02 00:59:16;;;;;;;10.80;9.90;;;;;;;;;;4986665;28;20069;-74
2023/08/02 01:01:42;;;;;;;10.70;9.80;;;;;;;;;;4985687;28;20601;-72
2023/08/02 01:04:09;;;;;;;11.10;10.10;;;;;;;;;;4985547;28;20046;-73
2023/08/02 01:06:56;;;;;;;11.13;10.13;;;;;;;;;;4984934;28;20034;-73
2023/08/02 01:09:28;;;;;;;10.93;10.15;;;;;;;;;;4984692;28;20403;-73
2023/08/02 01:12:03;;;;;;;11.05;10.15;;;;;;;;;;4987722;28;20038;-73
2023/08/02 01:14:30;;;;;;;11.18;10.32;;;;;;;;;;4986800;28;20135;-74
2023/08/02 01:16:57;;;;;;;11.15;10.27;;;;;;;;;;4986502;28;20038;-73
2023/08/02 01:19:23;;;;;;;11.02;10.18;;;;;;;;;;4987573;28;20101;-73
2023/08/02 01:21:49;;;;;;;11.10;10.18;;;;;;;;;;4986679;28;20113;-72
2023/08/02 01:24:15;;;;;;;11.23;10.43;;;;;;;;;;4987176;28;20121;-73
2023/08/02 01:26:45;;;;;;;10.65;10.00;;;;;;;;;;4987473;28;20027;-73
2023/08/02 01:29:17;;;;;;;11.13;10.32;;;;;;;;;;4987571;28;20739;-73
2023/08/02 01:31:44;;;;;;;11.05;10.35;;;;;;;;;;4986227;28;20082;-74
2023/08/02 01:34:11;;;;;;;10.75;10.05;;;;;;;;;;4986968;28;20037;-73
2023/08/02 01:36:37;;;;;;;10.57;9.88;;;;;;;;;;4988337;28;20525;-73
2023/08/02 01:39:02;;;;;;;11.00;10.30;;;;;;;;;;4985331;28;20030;-73
2023/08/02 01:41:28;;;;;;;10.98;10.25;;;;;;;;;;4987688;28;20402;-73
2023/08/02 01:43:54;;;;;;;11.40;10.50;;;;;;;;;;4987857;28;20108;-73
2023/08/02 01:46:19;;;;;;;11.60;10.80;;;;;;;;;;4986565;28;20046;-73
2023/08/02 01:48:45;;;;;;;11.02;10.18;;;;;;;;;;4986672;28;20192;-73
2023/08/02 01:51:10;;;;;;;10.70;10.00;;;;;;;;;;4986274;28;20038;-73
2023/08/02 01:53:36;;;;;;;11.25;10.48;;;;;;;;;;4987112;28;20053;-73
2023/08/02 01:56:02;;;;;;;10.88;10.10;;;;;;;;;;4985013;28;20049;-73
2023/08/02 01:58:29;;;;;;;10.82;10.13;;;;;;;;;;4984921;28;20046;-73
2023/08/02 02:00:56;;;;;;;10.88;10.07;;;;;;;;;;4986007;28;20689;-73
2023/08/02 02:03:21;;;;;;;10.95;10.15;;;;;;;;;;4984382;28;20068;-73
2023/08/02 02:05:54;;;;;;;11.10;10.40;;;;;;;;;;4987123;28;20074;-73
2023/08/02 02:08:20;;;;;;;11.30;10.60;;;;;;;;;;4985290;28;20037;-73
2023/08/02 02:10:53;;;;;;;11.07;10.02;;;;;;;;;;4987086;28;20466;-73
2023/08/02 02:13:21;;;;;;;11.05;10.32;;;;;;;;;;4985396;28;20030;-73
2023/08/02 02:15:46;;;;;;;11.27;10.40;;;;;;;;;;4983574;28;20117;-73
2023/08/02 02:18:12;;;;;;;11.15;10.05;;;;;;;;;;4987630;28;20173;-73
2023/08/02 02:20:38;;;;;;;11.20;10.27;;;;;;;;;;4983502;28;20038;-73
2023/08/02 02:23:04;;;;;;;10.70;9.90;;;;;;;;;;4985889;28;20038;-73
2023/08/02 02:25:29;;;;;;;10.75;9.75;;;;;;;;;;4979520;28;20042;-73
2023/08/02 02:27:55;;;;;;;11.15;10.35;;;;;;;;;;4987057;28;20055;-74
2023/08/02 02:30:21;;;;;;;11.02;10.18;;;;;;;;;;4988954;28;20030;-73
2023/08/02 02:32:47;;;;;;;11.02;9.90;;;;;;;;;;4986221;28;20597;-74
2023/08/02 02:35:12;;;;;;;10.77;9.82;;;;;;;;;;4986032;28;20049;-74
2023/08/02 02:37:40;;;;;;;10.98;10.07;;;;;;;;;;4984767;28;20572;-74
2023/08/02 02:40:08;;;;;;;11.80;9.85;;;;;;;;;;4985760;28;20038;-74
2023/08/02 02:42:34;;;;;;;10.77;10.00;;;;;;;;;;4984880;28;20046;-74
2023/08/02 02:45:00;;;;;;;11.07;10.27;;;;;;;;;;4982996;28;20041;-74
2023/08/02 02:47:26;;;;;;;10.88;9.70;;;;;;;;;;4984065;28;20046;-74
2023/08/02 02:49:52;;;;;;;10.38;9.55;;;;;;;;;;4983677;28;20045;-74
2023/08/02 02:52:17;;;;;;;10.80;10.07;;;;;;;;;;4984283;28;20038;-74
2023/08/02 02:54:43;;;;;;;10.23;9.63;;;;;;;;;;4983512;28;20054;-74
2023/08/02 02:57:09;;;;;;;10.10;9.40;;;;;;;;;;4984859;28;20052;-74
2023/08/02 02:59:35;;;;;;;10.75;9.85;;;;;;;;;;4985131;28;20034;-74
2023/08/02 03:02:00;;;;;;;10.25;9.52;;;;;;;;;;4984852;28;20046;-74
2023/08/02 03:04:27;;;;;;;10.30;9.60;;;;;;;;;;4980024;28;20037;-74
2023/08/02 03:06:52;;;;;;;10.88;10.07;;;;;;;;;;4983485;28;20145;-74
2023/08/02 03:09:18;;;;;;;10.38;9.65;;;;;;;;;;4984048;28;20117;-73
2023/08/02 03:11:44;;;;;;;11.25;10.45;;;;;;;;;;4983087;28;20654;-73
2023/08/02 03:14:10;;;;;;;11.00;10.20;;;;;;;;;;4980883;28;20121;-74
2023/08/02 03:16:35;;;;;;;10.85;9.88;;;;;;;;;;4983272;28;20133;-73
2023/08/02 03:19:01;;;;;;;10.82;9.93;;;;;;;;;;4980925;28;20044;-74
2023/08/02 03:21:27;;;;;;;10.82;10.13;;;;;;;;;;4986332;28;20626;-73
2023/08/02 03:23:52;;;;;;;10.70;10.00;;;;;;;;;;4981457;28;20034;-73
2023/08/02 03:26:18;;;;;;;10.38;9.68;;;;;;;;;;4980645;28;20042;-74
2023/08/02 03:28:43;;;;;;;11.25;10.43;;;;;;;;;;4982296;28;20027;-73
2023/08/02 03:31:09;;;;;;;11.25;10.40;;;;;;;;;;4983603;28;20038;-74
2023/08/02 03:33:34;;;;;;;11.20;10.48;;;;;;;;;;4982836;28;20034;-73
2023/08/02 03:36:00;;;;;;;11.23;10.52;;;;;;;;;;4979744;28;20089;-74
2023/08/02 03:38:25;;;;;;;11.13;10.23;;;;;;;;;;4981684;28;20128;-73
2023/08/02 03:40:52;;;;;;;10.77;9.98;;;;;;;;;;4981548;28;20426;-74
2023/08/02 03:43:17;;;;;;;11.05;10.15;;;;;;;;;;4984171;28;20038;-73
2023/08/02 03:45:43;;;;;;;10.85;10.15;;;;;;;;;;4980401;28;20027;-74
2023/08/02 03:48:08;;;;;;;10.50;9.73;;;;;;;;;;4981946;28;20034;-74
2023/08/02 03:50:34;;;;;;;11.23;10.30;;;;;;;;;;4984275;28;20053;-73
2023/08/02 03:53:00;;;;;;;10.68;9.98;;;;;;;;;;4981475;28;20035;-74
2023/08/02 03:55:26;;;;;;;10.70;9.80;;;;;;;;;;4982399;28;20515;-74
2023/08/02 03:57:51;;;;;;;10.88;9.85;;;;;;;;;;4985791;28;20395;-73
2023/08/02 04:00:17;;;;;;;11.23;10.40;;;;;;;;;;4983741;28;20034;-73
2023/08/02 04:02:43;;;;;;;11.27;9.80;;;;;;;;;;4987396;28;20042;-73
2023/08/02 04:05:10;;;;;;;10.73;9.93;;;;;;;;;;4988806;28;20035;-73
2023/08/02 04:07:35;;;;;;;11.15;10.20;;;;;;;;;;4988751;28;20510;-74
2023/08/02 04:10:01;;;;;;;10.88;10.02;;;;;;;;;;4991387;28;20533;-73
2023/08/02 04:12:26;;;;;;;11.30;10.30;;;;;;;;;;4988675;28;20095;-73
2023/08/02 04:14:54;;;;;;;11.02;9.98;;;;;;;;;;4989315;28;20689;-73
2023/08/02 04:17:19;;;;;;;10.88;9.95;;;;;;;;;;4987161;28;20073;-73
2023/08/02 04:19:45;;;;;;;11.60;10.60;;;;;;;;;;4989669;28;20084;-73
2023/08/02 04:22:10;;;;;;;10.73;10.02;;;;;;;;;;4988619;28;20030;-73
2023/08/02 04:24:36;;;;;;;11.25;10.25;;;;;;;;;;4986168;28;20030;-73
2023/08/02 04:27:01;;;;;;;11.85;10.98;;;;;;;;;;4987753;28;20042;-73
2023/08/02 04:29:27;;;;;;;11.50;10.57;;;;;;;;;;4993580;28;20038;-73
2023/08/02 04:31:53;;;;;;;11.02;9.93;;;;;;;;;;4988778;28;20030;-73
2023/08/02 04:34:18;;;;;;;11.55;10.60;;;;;;;;;;4988541;28;20045;-73
2023/08/02 04:36:44;;;;;;;11.02;10.13;;;;;;;;;;4985932;28;20042;-73
2023/08/02 04:39:10;;;;;;;11.35;10.35;;;;;;;;;;4994287;28;20229;-73
2023/08/02 04:41:36;;;;;;;11.23;10.35;;;;;;;;;;4991324;28;20089;-73
2023/08/02 04:44:02;;;;;;;11.20;10.40;;;;;;;;;;4989896;28;20723;-73
2023/08/02 04:46:28;;;;;;;11.32;10.57;;;;;;;;;;4988444;28;20038;-73
2023/08/02 04:48:53;;;;;;;12.48;11.27;;;;;;;;;;4988191;28;20031;-73
2023/08/02 04:51:19;;;;;;;11.93;10.85;;;;;;;;;;4988094;28;20038;-73
2023/08/02 04:53:47;;;;;;;12.18;11.00;;;;;;;;;;4988478;28;20181;-73
2023/08/02 04:56:16;;;;;;;11.45;10.65;;;;;;;;;;4988436;28;20026;-73
2023/08/02 04:58:42;;;;;;;14.15;10.65;;;;;;;;;;4987079;28;20668;-73
2023/08/02 05:01:08;;;;;;;12.68;10.85;;;;;;;;;;4988450;28;20038;-74
2023/08/02 05:03:35;;;;;;;12.35;11.35;;;;;;;;;;4990553;28;20030;-73
2023/08/02 05:06:02;;;;;;;12.25;11.35;;;;;;;;;;4988363;28;20033;-73
2023/08/02 05:08:30;;;;;;;12.27;11.18;;;;;;;;;;4987406;28;20045;-74
2023/08/02 05:10:56;;;;;;;12.15;11.25;;;;;;;;;;4989818;28;20786;-72
2023/08/02 05:13:23;;;;;;;12.35;11.40;;;;;;;;;;4987921;28;20042;-73
2023/08/02 05:15:49;;;;;;;12.10;11.20;;;;;;;;;;4988271;28;20030;-73
2023/08/02 05:18:15;;;;;;;12.00;10.98;;;;;;;;;;4986091;28;20034;-72
2023/08/02 05:20:40;;;;;;;12.02;11.23;;;;;;;;;;4987721;28;20050;-73
2023/08/02 05:23:06;;;;;;;13.20;12.18;;;;;;;;;;4990959;28;20053;-72
2023/08/02 05:25:33;;;;;;;12.93;12.00;;;;;;;;;;4986991;28;20042;-72
2023/08/02 05:27:59;;;;;;;12.68;11.50;;;;;;;;;;4988231;28;20038;-72
2023/08/02 05:30:27;;;;;;;12.98;11.88;;;;;;;;;;4988025;28;20540;-72
2023/08/02 05:32:53;;;;;;;13.27;12.30;;;;;;;;;;4985886;28;20042;-72
2023/08/02 05:35:18;;;;;;;12.65;11.85;;;;;;;;;;4986564;28;20581;-72
2023/08/02 05:37:44;;;;;;;13.23;12.18;;;;;;;;;;4988544;28;20434;-72
2023/08/02 05:40:10;;;;;;;13.25;12.07;;;;;;;;;;4987507;28;20136;-72
2023/08/02 05:42:35;;;;;;;13.75;12.38;;;;;;;;;;4987227;28;20091;-72
2023/08/02 05:45:01;;;;;;;12.82;11.90;;;;;;;;;;4987516;28;20121;-72
2023/08/02 05:47:27;;;;;;;13.57;12.27;;;;;;;;;;4986178;28;20038;-72
2023/08/02 05:49:52;;;;;;;13.45;12.43;;;;;;;;;;4987655;28;20128;-72
2023/08/02 05:52:18;;;;;;;13.52;12.30;;;;;;;;;;4987071;28;20522;-72
2023/08/02 05:54:44;;;;;;;13.38;12.43;;;;;;;;;;4985296;28;20069;-72
2023/08/02 05:57:09;;;;;;;13.93;12.82;;;;;;;;;;4984435;28;20042;-72
2023/08/02 05:59:37;;;;;;;13.90;12.73;;;;;;;;;;4987008;28;20026;-73
2023/08/02 06:02:04;;;;;;;12.85;11.57;;;;;;;;;;4989600;28;20152;-73
2023/08/02 06:04:29;;;;;;;13.20;12.15;;;;;;;;;;4985151;28;20034;-72
2023/08/02 06:06:55;;;;;;;13.75;12.65;;;;;;;;;;4987831;28;20057;-72
2023/08/02 06:09:20;;;;;;;13.48;12.38;;;;;;;;;;4984889;28;20125;-73
2023/08/02 06:11:46;;;;;;;14.35;13.30;;;;;;;;;;4987593;28;20536;-73
2023/08/02 06:14:12;;;;;;;13.95;12.85;;;;;;;;;;4986979;28;20486;-72
2023/08/02 06:16:37;;;;;;;14.88;13.35;;;;;;;;;;4989131;28;20028;-73
2023/08/02 06:19:03;;;;;;;14.15;13.00;;;;;;;;;;4984622;28;20050;-73
2023/08/02 06:21:29;;;;;;;14.00;13.00;;;;;;;;;;4986350;28;20030;-73
2023/08/02 06:23:54;;;;;;;14.10;12.77;;;;;;;;;;4986496;28;20559;-74
2023/08/02 06:26:20;;;;;;;14.93;13.57;;;;;;;;;;4985344;28;20637;-75
2023/08/02 06:28:45;;;;;;;15.05;13.55;;;;;;;;;;4986224;28;20050;-74
2023/08/02 06:31:11;;;;;;;14.57;13.30;;;;;;;;;;4986204;28;20719;-74
2023/08/02 06:33:37;;;;;;;14.35;13.10;;;;;;;;;;4984996;28;20049;-74
2023/08/02 06:36:02;;;;;;;15.18;13.73;;;;;;;;;;4983137;28;20038;-74
2023/08/02 06:38:28;;;;;;;17.25;13.35;;;;;;;;;;4985808;28;20422;-74
2023/08/02 06:40:53;;;;;;;16.52;14.38;;;;;;;;;;4984220;28;20034;-74
2023/08/02 06:43:19;;;;;;;14.52;13.07;;;;;;;;;;4985840;28;20030;-74
2023/08/02 06:45:46;;;;;;;15.02;13.60;;;;;;;;;;4985774;28;20064;-75
2023/08/02 06:48:12;;;;;;;14.98;13.43;;;;;;;;;;4983081;28;20034;-74
2023/08/02 06:50:37;;;;;;;15.13;13.68;;;;;;;;;;4983420;28;20041;-75
2023/08/02 06:53:05;;;;;;;15.65;14.25;;;;;;;;;;4985837;28;20429;-74
2023/08/02 06:55:31;;;;;;;16.17;14.65;;;;;;;;;;4985707;28;20058;-74
2023/08/02 06:57:56;;;;;;;16.23;14.55;;;;;;;;;;4983833;28;20591;-74
2023/08/02 07:00:22;;;;;;;14.75;13.35;;;;;;;;;;4985791;28;20709;-74
2023/08/02 07:02:47;;;;;;;15.55;14.00;;;;;;;;;;4985731;28;20738;-74
2023/08/02 07:05:13;;;;;;;15.68;14.23;;;;;;;;;;4984399;28;20046;-75
2023/08/02 07:07:38;;;;;;;15.68;14.18;;;;;;;;;;4985604;28;20042;-75
2023/08/02 07:10:04;;;;;;;16.98;15.27;;;;;;;;;;4986168;28;20034;-74
2023/08/02 07:12:30;;;;;;;16.73;15.23;;;;;;;;;;4985697;28;20042;-74
2023/08/02 07:14:55;;;;;;;17.02;14.50;;;;;;;;;;4986601;28;20046;-74
2023/08/02 07:17:21;;;;;;;15.50;13.95;;;;;;;;;;4985179;28;20030;-74
2023/08/02 07:19:48;;;;;;;16.75;15.18;;;;;;;;;;4985311;28;20073;-74
2023/08/02 07:22:17;;;;;;;16.23;14.52;;;;;;;;;;4983012;28;20057;-75
2023/08/02 07:24:45;;;;;;;;;;;;;;;;;;4984845;28;20286;-74
2023/08/02 07:27:11;;;;;;;16.10;14.63;;;;;;;;;;4985617;28;19975;-74
2023/08/02 07:29:36;;;;;;;16.35;15.13;;;;;;;;;;4984115;28;20121;-75
2023/08/02 07:32:02;;;;;;;16.50;15.00;;;;;;;;;;4986825;28;20057;-75
2023/08/02 07:34:27;;;;;;;16.85;15.32;;;;;;;;;;4989656;28;20049;-74
2023/08/02 07:36:53;;;;;;;16.33;14.82;;;;;;;;;;4989271;28;20100;-75
2023/08/02 07:39:18;;;;;;;16.20;14.65;;;;;;;;;;4986217;28;20034;-74
2023/08/02 07:41:44;;;;;;;18.80;15.43;;;;;;;;;;4985851;28;20121;-73
2023/08/02 07:44:10;;;;;;;17.58;14.55;;;;;;;;;;4986971;28;20125;-73
2023/08/02 07:46:35;;;;;;;15.57;14.00;;;;;;;;;;4985021;28;20160;-74
2023/08/02 07:49:01;;;;;;;17.15;15.63;;;;;;;;;;4986361;28;20185;-74
2023/08/02 07:51:26;;;;;;;17.17;15.30;;;;;;;;;;4986188;28;20483;-74
2023/08/02 07:53:52;;;;;;;18.90;17.08;;;;;;;;;;4985606;28;20084;-73
2023/08/02 07:56:19;;;;;;;16.70;15.35;;;;;;;;;;4985438;28;20188;-74
2023/08/02 07:58:44;;;;;;;17.02;15.75;;;;;;;;;;4948662;28;20082;-73
2023/08/02 08:01:10;;;;;;;16.98;15.68;;;;;;;;;;4985626;28;20372;-73
2023/08/02 08:03:37;;;;;;;16.63;15.25;;;;;;;;;;4982289;28;20096;-74
2023/08/02 08:06:14;;;;;;;16.75;15.32;;;;;;;;;;4984998;28;20042;-73
2023/08/02 08:08:40;;;;;;;18.00;14.68;;;;;;;;;;4968559;28;20034;-74
2023/08/02 08:11:06;;;;;;;16.10;14.90;;;;;;;;;;4986206;28;20032;-74
2023/08/02 08:13:32;;;;;;;15.05;13.77;;;;;;;;;;4984457;28;20062;-74
2023/08/02 08:15:59;;;;;;;14.73;13.73;;;;;;;;;;4985224;28;20038;-73
2023/08/02 08:18:25;;;;;;;15.48;14.27;;;;;;;;;;4984543;28;20041;-73
2023/08/02 08:20:51;;;;;;;15.32;14.13;;;;;;;;;;4985230;28;20038;-73
2023/08/02 08:23:16;;;;;;;15.65;14.45;;;;;;;;;;4985502;28;20104;-74
2023/08/02 08:25:42;;;;;;;14.85;13.75;;;;;;;;;;4986283;28;20038;-74
2023/08/02 08:28:08;;;;;;;14.93;13.73;;;;;;;;;;4986066;28;20031;-74
2023/08/02 08:30:33;;;;;;;15.90;14.60;;;;;;;;;;4983913;28;20164;-74
2023/08/02 08:32:59;;;;;;;14.50;13.40;;;;;;;;;;4984935;28;20126;-74
2023/08/02 08:35:25;;;;;;;14.88;13.77;;;;;;;;;;4998307;28;20038;-74
2023/08/02 08:37:52;;;;;;;15.05;13.88;;;;;;;;;;4972877;28;20484;-74
2023/08/02 08:40:19;;;;;;;14.82;13.38;;;;;;;;;;4985330;28;20033;-74
2023/08/02 08:42:47;;;;;;;14.38;13.27;;;;;;;;;;4978618;28;20436;-73
2023/08/02 08:45:15;;;;;;;15.05;13.85;;;;;;;;;;4984767;28;20042;-74
2023/08/02 08:47:43;;;;;;;14.63;13.52;;;;;;;;;;4985428;28;20436;-74
2023/08/02 08:50:09;;;;;;;13.48;12.57;;;;;;;;;;4983421;28;20234;-74
2023/08/02 08:52:36;;;;;;;15.95;14.65;;;;;;;;;;4985029;28;20457;-74
2023/08/02 08:55:03;;;;;;;13.80;12.80;;;;;;;;;;4985240;28;20038;-74
2023/08/02 08:57:31;;;;;;;15.20;13.85;;;;;;;;;;4980258;28;20030;-74
2023/08/02 08:59:57;;;;;;;14.98;13.88;;;;;;;;;;4980607;28;20042;-74
2023/08/02 09:02:23;;;;;;;13.80;12.90;;;;;;;;;;4983835;28;20125;-73
2023/08/02 09:04:51;;;;;;;14.57;13.57;;;;;;;;;;4983389;28;20145;-74
2023/08/02 09:07:16;;;;;;;13.55;12.55;;;;;;;;;;4980982;28;20045;-73
2023/08/02 09:09:42;;;;;;;15.02;13.93;;;;;;;;;;4983181;28;20034;-73
2023/08/02 09:12:08;;;;;;;14.13;13.13;;;;;;;;;;4983597;28;20033;-73
2023/08/02 09:14:33;;;;;;;13.48;12.55;;;;;;;;;;4981032;28;20065;-73
2023/08/02 09:17:01;;;;;;;13.48;12.50;;;;;;;;;;4983574;28;20073;-73
2023/08/02 09:19:29;;;;;;;13.57;12.52;;;;;;;;;;4982782;28;20113;-73
2023/08/02 09:22:14;;;;;;;12.85;11.95;;;;;;;;;;4983454;28;20042;-73
2023/08/02 09:24:42;;;;;;;13.73;12.68;;;;;;;;;;4983079;28;20050;-73
2023/08/02 09:27:17;;;;;;;13.43;12.45;;;;;;;;;;4965815;28;20049;-72
2023/08/02 09:29:52;;;;;;;13.50;12.40;;;;;;;;;;4977360;28;20557;-74
2023/08/02 09:32:20;;;;;;;13.52;12.57;;;;;;;;;;4980220;28;20038;-73
2023/08/02 09:34:51;;;;;;;13.65;12.75;;;;;;;;;;4979296;28;20046;-73
2023/08/02 09:37:26;;;;;;;13.35;12.45;;;;;;;;;;4981903;28;20741;-73
2023/08/02 09:39:52;;;;;;;13.40;12.45;;;;;;;;;;4982267;28;20122;-74
2023/08/02 09:42:23;;;;;;;13.65;12.65;;;;;;;;;;4982711;28;20510;-73
2023/08/02 09:45:06;;;;;;;12.93;12.02;;;;;;;;;;4984262;28;20443;-74
2023/08/02 09:47:32;;;;;;;13.27;12.32;;;;;;;;;;4983959;28;20038;-73
2023/08/02 09:50:11;;;;;;;13.88;12.88;;;;;;;;;;4983318;28;20576;-73
2023/08/02 09:52:40;;;;;;;13.73;12.73;;;;;;;;;;4982924;28;20034;-73
2023/08/02 09:55:06;;;;;;;;;;;;;;;;;;4982264;28;20482;-74
2023/08/02 09:57:32;;;;;;;13.85;12.95;;;;;;;;;;4984968;28;19921;-74
2023/08/02 10:00:04;;;;;;;13.10;12.20;;;;;;;;;;4986382;28;20065;-74
2023/08/02 10:02:37;;;;;;;13.43;12.52;;;;;;;;;;4986432;28;20038;-74
2023/08/02 10:05:04;;;;;;;13.80;12.70;;;;;;;;;;4985411;28;20038;-75
2023/08/02 10:07:45;;;;;;;13.80;12.80;;;;;;;;;;4983684;28;20113;-74
2023/08/02 10:10:13;;;;;;;13.50;12.60;;;;;;;;;;4991250;28;20041;-74
2023/08/02 10:12:40;;;;;;;13.55;12.63;;;;;;;;;;4984053;28;20583;-74
2023/08/02 10:15:06;;;;;;;13.23;12.30;;;;;;;;;;4986279;28;20038;-74
2023/08/02 10:17:32;;;;;;;13.82;12.60;;;;;;;;;;4985763;28;20034;-75
2023/08/02 10:20:00;;;;;;;13.60;12.70;;;;;;;;;;4986213;28;20117;-74
2023/08/02 10:22:26;;;;;;;13.38;12.38;;;;;;;;;;4984339;28;20042;-74
2023/08/02 10:24:52;;;;;;;13.65;12.48;;;;;;;;;;4986236;28;20406;-74
2023/08/02 10:27:19;;;;;;;13.43;12.48;;;;;;;;;;4986314;28;20038;-75
2023/08/02 10:29:47;;;;;;;13.48;12.40;;;;;;;;;;4984786;28;20093;-75
2023/08/02 10:32:21;;;;;;;12.95;12.05;;;;;;;;;;4986025;28;20114;-75
2023/08/02 10:34:49;;;;;;;14.13;13.10;;;;;;;;;;4986245;28;20081;-74
2023/08/02 10:37:15;;;;;;;14.30;13.05;;;;;;;;;;4986636;28;20038;-74
2023/08/02 10:39:47;;;;;;;14.98;13.98;;;;;;;;;;4984667;28;20038;-74
2023/08/02 10:42:17;;;;;;;14.65;13.45;;;;;;;;;;4986213;28;20146;-74
2023/08/02 10:44:54;;;;;;;14.38;13.38;;;;;;;;;;4986288;28;20042;-74
2023/08/02 10:47:27;;;;;;;14.63;13.52;;;;;;;;;;4985774;28;20104;-74
2023/08/02 10:49:53;;;;;;;14.18;13.07;;;;;;;;;;4985719;28;20065;-74
2023/08/02 10:52:36;;;;;;;13.07;12.18;;;;;;;;;;4986912;28;20461;-74
2023/08/02 10:55:06;;;;;;;13.85;12.85;;;;;;;;;;4983986;28;20117;-74
2023/08/02 10:57:32;;;;;;;14.10;12.73;;;;;;;;;;4978844;28;20036;-74
2023/08/02 10:59:58;;;;;;;14.07;12.82;;;;;;;;;;4979073;28;20410;-74
2023/08/02 11:02:26;;;;;;;14.07;13.07;;;;;;;;;;4980583;28;20034;-74
2023/08/02 11:04:52;;;;;;;14.05;13.05;;;;;;;;;;4979769;28;20042;-74
2023/08/02 11:07:19;;;;;;;14.00;12.90;;;;;;;;;;4977788;28;20084;-74
2023/08/02 11:09:46;;;;;;;14.05;13.05;;;;;;;;;;4979263;28;20038;-74
2023/08/02 11:12:17;;;;;;;14.80;13.43;;;;;;;;;;4979370;28;20072;-74
2023/08/02 11:14:48;;;;;;;13.70;12.70;;;;;;;;;;4979706;28;20042;-74
2023/08/02 11:17:18;;;;;;;13.43;12.43;;;;;;;;;;4976330;28;20041;-74
2023/08/02 11:19:49;;;;;;;13.27;12.18;;;;;;;;;;4980296;28;20046;-75
2023/08/02 11:22:15;;;;;;;13.20;12.23;;;;;;;;;;4978823;28;20037;-75
2023/08/02 11:24:46;;;;;;;13.82;12.70;;;;;;;;;;4979315;28;20156;-75
2023/08/02 11:27:19;;;;;;;13.95;12.90;;;;;;;;;;4980405;28;20606;-75
2023/08/02 11:30:05;;;;;;;14.00;12.80;;;;;;;;;;4980018;28;20054;-75
2023/08/02 11:32:32;;;;;;;13.60;12.60;;;;;;;;;;4977462;28;20432;-74
2023/08/02 11:34:58;;;;;;;13.48;12.57;;;;;;;;;;4979105;28;20042;-75
2023/08/02 11:37:25;;;;;;;13.40;12.35;;;;;;;;;;4980551;28;20045;-75
2023/08/02 11:39:55;;;;;;;13.32;12.27;;;;;;;;;;4978981;28;20414;-74
2023/08/02 11:42:21;;;;;;;13.82;12.73;;;;;;;;;;4979066;28;20403;-74
2023/08/02 11:44:47;;;;;;;13.55;12.45;;;;;;;;;;4977584;28;20038;-75
2023/08/02 11:47:12;;;;;;;13.93;12.93;;;;;;;;;;4982580;28;20041;-74
2023/08/02 11:49:51;;;;;;;13.38;12.43;;;;;;;;;;4983304;28;20031;-75
2023/08/02 11:52:30;;;;;;;12.57;11.77;;;;;;;;;;4985088;28;20034;-75
2023/08/02 11:54:56;;;;;;;12.40;11.32;;;;;;;;;;4985465;28;20069;-75
2023/08/02 11:57:23;;;;;;;12.10;11.20;;;;;;;;;;4984093;28;20474;-75
2023/08/02 11:59:52;;;;;;;11.90;11.10;;;;;;;;;;4985177;28;20042;-75
2023/08/02 12:02:35;;;;;;;12.55;11.55;;;;;;;;;;4985065;28;20403;-75
2023/08/02 12:05:05;;;;;;;12.27;11.32;;;;;;;;;;4984521;28;20144;-75
2023/08/02 12:07:35;;;;;;;12.13;11.05;;;;;;;;;;4985194;28;20038;-74
2023/08/02 12:10:04;;;;;;;12.77;11.82;;;;;;;;;;4984373;28;20681;-74
2023/08/02 12:12:30;;;;;;;;;;;;;;;;;;4986930;28;20555;-74
2023/08/02 12:14:57;;;;;;;12.40;11.50;;;;;;;;;;4985478;28;19914;-74
2023/08/02 12:17:23;;;;;;;11.95;11.13;;;;;;;;;;4986569;28;20049;-74
2023/08/02 12:19:50;;;;;;;12.30;11.25;;;;;;;;;;4987222;28;20034;-75
2023/08/02 12:22:18;;;;;;;12.10;11.30;;;;;;;;;;4988478;28;20035;-74
2023/08/02 12:24:44;;;;;;;12.20;11.30;;;;;;;;;;4987747;28;20046;-74
2023/08/02 12:27:19;;;;;;;12.38;11.45;;;;;;;;;;4985834;28;20034;-74
2023/08/02 12:29:46;;;;;;;12.20;11.30;;;;;;;;;;4983033;28;20594;-74
2023/08/02 12:32:27;;;;;;;11.82;10.77;;;;;;;;;;4986778;28;20046;-74
2023/08/02 12:34:52;;;;;;;12.15;11.13;;;;;;;;;;4987001;28;20076;-74
2023/08/02 12:37:18;;;;;;;11.15;10.40;;;;;;;;;;4985572;28;20480;-75
2023/08/02 12:39:44;;;;;;;11.82;11.00;;;;;;;;;;4985733;28;20605;-75
2023/08/02 12:42:09;;;;;;;11.77;10.88;;;;;;;;;;4987330;28;20033;-74
2023/08/02 12:44:35;;;;;;;11.90;10.82;;;;;;;;;;4986611;28;20039;-74
2023/08/02 12:47:00;;;;;;;10.82;10.05;;;;;;;;;;4985471;28;20034;-74
2023/08/02 12:49:26;;;;;;;11.13;10.15;;;;;;;;;;4985815;28;20073;-74
2023/08/02 12:51:51;;;;;;;10.77;9.88;;;;;;;;;;4986285;28;20461;-74
2023/08/02 12:54:17;;;;;;;10.57;9.77;;;;;;;;;;4986588;28;20038;-74
2023/08/02 12:56:43;;;;;;;10.55;9.73;;;;;;;;;;4985497;28;20045;-74
2023/08/02 12:59:08;;;;;;;11.18;10.38;;;;;;;;;;4984535;28;20034;-74
2023/08/02 13:01:34;;;;;;;10.77;9.98;;;;;;;;;;4986446;28;20129;-74
2023/08/02 13:04:00;;;;;;;10.50;9.73;;;;;;;;;;4985001;28;20113;-74
2023/08/02 13:06:25;;;;;;;10.55;9.80;;;;;;;;;;4984818;28;20030;-74
2023/08/02 13:08:51;;;;;;;10.52;9.80;;;;;;;;;;4985926;28;20046;-74
2023/08/02 13:11:16;;;;;;;10.65;9.85;;;;;;;;;;4986095;28;20038;-74
2023/08/02 13:13:42;;;;;;;11.07;10.10;;;;;;;;;;4984653;28;20034;-74
2023/08/02 13:16:07;;;;;;;10.77;9.90;;;;;;;;;;4985982;28;20046;-74
2023/08/02 13:18:33;;;;;;;10.95;10.05;;;;;;;;;;4985635;28;20030;-74
2023/08/02 13:20:59;;;;;;;11.50;10.35;;;;;;;;;;4986265;28;20092;-74
2023/08/02 13:23:24;;;;;;;10.65;9.95;;;;;;;;;;4984749;28;20026;-74
2023/08/02 13:25:50;;;;;;;10.57;9.73;;;;;;;;;;4985161;28;20038;-74
2023/08/02 13:28:16;;;;;;;11.43;10.52;;;;;;;;;;4985589;28;20042;-74
2023/08/02 13:30:42;;;;;;;11.15;10.35;;;;;;;;;;4983237;28;20034;-74
2023/08/02 13:33:08;;;;;;;11.20;10.30;;;;;;;;;;4985581;28;20034;-75
2023/08/02 13:35:33;;;;;;;10.77;10.00;;;;;;;;;;4985721;28;20249;-74
2023/08/02 13:37:59;;;;;;;11.25;10.30;;;;;;;;;;4985397;28;20053;-75
2023/08/02 13:40:24;;;;;;;11.80;10.63;;;;;;;;;;4984392;28;20061;-74
2023/08/02 13:42:50;;;;;;;10.98;10.27;;;;;;;;;;4985589;28;20046;-74
2023/08/02 13:45:16;;;;;;;10.73;10.02;;;;;;;;;;4985639;28;20026;-74
2023/08/02 13:47:42;;;;;;;11.00;10.10;;;;;;;;;;4985798;28;20038;-74
2023/08/02 13:50:08;;;;;;;11.68;10.80;;;;;;;;;;4984754;28;20101;-74
2023/08/02 13:52:33;;;;;;;11.77;10.90;;;;;;;;;;4985109;28;20041;-74
2023/08/02 13:54:59;;;;;;;12.02;11.13;;;;;;;;;;4985665;28;20517;-74
2023/08/02 13:57:25;;;;;;;11.52;10.57;;;;;;;;;;4984191;28;20172;-74
2023/08/02 13:59:51;;;;;;;11.20;10.40;;;;;;;;;;4985290;28;20038;-74
2023/08/02 14:02:16;;;;;;;11.10;10.40;;;;;;;;;;4985052;28;20650;-74
2023/08/02 14:04:43;;;;;;;11.27;10.48;;;;;;;;;;4985405;28;20164;-74
2023/08/02 14:07:08;;;;;;;11.55;10.75;;;;;;;;;;4984132;28;20043;-74
2023/08/02 14:09:36;;;;;;;10.43;9.82;;;;;;;;;;4983127;28;20053;-74
2023/08/02 14:12:03;;;;;;;10.38;9.60;;;;;;;;;;4983166;28;20089;-74
2023/08/02 14:14:28;;;;;;;10.80;10.00;;;;;;;;;;4985528;28;20026;-74
2023/08/02 14:16:54;;;;;;;10.93;10.02;;;;;;;;;;4985298;28;20054;-74
2023/08/02 14:19:20;;;;;;;10.98;10.18;;;;;;;;;;4986653;28;20057;-74